createdAt,value
2022-10-08T00:01:52.451Z,21.50
2022-10-08T00:04:19.747Z,22.40
2022-10-08T00:06:46.958Z,22.03
2022-10-08T00:09:14.094Z,22.20
2022-10-08T00:11:41.340Z,22.23
2022-10-08T00:14:09.213Z,22.00
2022-10-08T00:16:40.094Z,22.33
2022-10-08T00:19:08.531Z,21.30
2022-10-08T00:21:36.675Z,20.77
2022-10-08T00:24:04.301Z,23.80
2022-10-08T00:26:31.837Z,23.23
2022-10-08T00:29:01.713Z,23.57
2022-10-08T00:31:32.489Z,21.00
2022-10-08T00:34:00.226Z,22.33
2022-10-08T00:36:28.404Z,19.73
2022-10-08T00:38:58.844Z,21.57
2022-10-08T00:41:26.704Z,23.00
2022-10-08T00:43:54.750Z,20.53
2022-10-08T00:46:27.155Z,22.83
2022-10-08T00:49:00.659Z,22.70
2022-10-08T00:51:27.883Z,20.40
2022-10-08T00:53:55.134Z,22.07
2022-10-08T00:56:22.444Z,22.50
2022-10-08T00:58:50.061Z,22.13
2022-10-08T01:01:17.409Z,21.63
2022-10-08T01:03:44.681Z,22.03
2022-10-08T01:06:14.970Z,24.03
2022-10-08T01:08:47.659Z,19.87
2022-10-08T01:11:24.246Z,21.47
2022-10-08T01:14:00.482Z,21.80
2022-10-08T01:16:32.699Z,20.50
2022-10-08T01:19:09.548Z,22.70
2022-10-08T01:21:43.565Z,18.73
2022-10-08T01:24:19.842Z,20.97
2022-10-08T01:27:03.166Z,18.80
2022-10-08T01:29:49.519Z,20.93
2022-10-08T01:32:23.224Z,18.93
2022-10-08T01:34:51.880Z,20.50
2022-10-08T01:37:31.881Z,20.23
2022-10-08T01:39:59.556Z,19.80
2022-10-08T01:42:26.972Z,20.37
2022-10-08T01:44:58.481Z,20.80
2022-10-08T01:47:27.912Z,20.50
2022-10-08T01:49:56.729Z,19.97
2022-10-08T01:52:28.116Z,19.60
2022-10-08T01:54:56.109Z,22.07
2022-10-08T01:57:23.485Z,20.37
2022-10-08T01:59:55.141Z,18.87
2022-10-08T02:02:23.167Z,21.07
2022-10-08T02:04:53.409Z,19.03
2022-10-08T02:07:29.281Z,22.30
2022-10-08T02:10:15.915Z,19.47
2022-10-08T02:12:43.236Z,21.17
2022-10-08T02:15:12.843Z,20.30
2022-10-08T02:17:57.720Z,19.20
2022-10-08T02:20:27.678Z,19.20
2022-10-08T02:22:54.829Z,21.33
2022-10-08T02:25:21.991Z,20.60
2022-10-08T02:27:53.611Z,21.60
2022-10-08T02:30:20.963Z,19.80
2022-10-08T02:32:49.480Z,22.40
2022-10-08T02:35:25.497Z,18.27
2022-10-08T02:38:02.862Z,17.07
2022-10-08T02:40:30.531Z,18.20
2022-10-08T02:42:59.578Z,18.73
2022-10-08T02:45:37.119Z,22.53
2022-10-08T02:48:06.318Z,19.07
2022-10-08T02:50:34.492Z,21.00
2022-10-08T02:53:01.627Z,18.80
2022-10-08T02:55:39.867Z,18.97
2022-10-08T02:58:07.712Z,17.07
2022-10-08T03:00:37.141Z,17.40
2022-10-08T03:03:12.131Z,17.33
2022-10-08T03:05:39.881Z,18.10
2022-10-08T03:08:07.194Z,17.70
2022-10-08T03:10:35.052Z,16.60
2022-10-08T03:13:02.412Z,17.10
2022-10-08T03:15:30.494Z,20.73
2022-10-08T03:17:57.628Z,17.20
2022-10-08T03:20:26.784Z,18.90
2022-10-08T03:22:57.370Z,18.50
2022-10-08T03:25:24.527Z,19.80
2022-10-08T03:27:51.823Z,18.20
2022-10-08T03:30:18.874Z,18.00
2022-10-08T03:32:46.410Z,19.47
2022-10-08T03:35:13.833Z,18.37
2022-10-08T03:37:41.004Z,18.00
2022-10-08T03:40:08.497Z,18.50
2022-10-08T03:42:35.651Z,20.47
2022-10-08T03:45:02.890Z,18.67
2022-10-08T03:47:30.019Z,19.70
2022-10-08T03:49:57.113Z,18.10
2022-10-08T03:52:24.247Z,17.57
2022-10-08T03:54:51.416Z,18.60
2022-10-08T03:57:18.647Z,21.13
2022-10-08T03:59:45.798Z,17.10
2022-10-08T04:02:13.102Z,16.40
2022-10-08T04:04:40.352Z,19.20
2022-10-08T04:07:07.511Z,18.93
2022-10-08T04:09:34.604Z,21.30
2022-10-08T04:12:01.744Z,20.57
2022-10-08T04:14:28.954Z,19.63
2022-10-08T04:16:56.203Z,19.47
2022-10-08T04:19:23.265Z,18.70
2022-10-08T04:21:52.612Z,19.03
2022-10-08T04:24:19.816Z,18.97
2022-10-08T04:26:46.971Z,17.80
2022-10-08T04:29:14.309Z,17.10
2022-10-08T04:31:41.604Z,15.53
2022-10-08T04:34:10.501Z,19.80
2022-10-08T04:36:37.694Z,18.20
2022-10-08T04:39:04.951Z,17.53
2022-10-08T04:41:32.088Z,17.17
2022-10-08T04:44:01.088Z,16.03
2022-10-08T04:46:28.537Z,19.17
2022-10-08T04:48:56.121Z,16.77
2022-10-08T04:51:23.884Z,17.17
2022-10-08T04:53:51.144Z,18.00
2022-10-08T04:56:19.107Z,18.40
2022-10-08T04:58:46.303Z,18.77
2022-10-08T05:01:14.262Z,20.10
2022-10-08T05:03:42.356Z,18.20
2022-10-08T05:06:09.639Z,16.23
2022-10-08T05:08:36.856Z,16.40
2022-10-08T05:11:04.119Z,15.90
2022-10-08T05:13:31.228Z,17.80
2022-10-08T05:16:02.903Z,16.10
2022-10-08T05:18:30.102Z,16.57
2022-10-08T05:20:57.407Z,16.20
2022-10-08T05:23:24.550Z,18.17
2022-10-08T05:25:51.652Z,15.73
2022-10-08T05:28:18.765Z,18.83
2022-10-08T05:30:46.104Z,18.57
2022-10-08T05:33:13.250Z,19.30
2022-10-08T05:35:40.410Z,18.13
2022-10-08T05:38:07.492Z,17.63
2022-10-08T05:40:34.876Z,15.13
2022-10-08T05:43:01.997Z,15.30
2022-10-08T05:45:29.256Z,16.40
2022-10-08T05:47:56.507Z,17.10
2022-10-08T05:50:23.696Z,17.60
2022-10-08T05:52:50.904Z,16.67
2022-10-08T05:55:18.045Z,16.00
2022-10-08T05:57:45.153Z,15.13
2022-10-08T06:00:12.706Z,16.57
2022-10-08T06:02:39.979Z,17.37
2022-10-08T06:05:07.404Z,17.10
2022-10-08T06:07:34.568Z,16.73
2022-10-08T06:10:01.633Z,17.50
2022-10-08T06:12:29.080Z,17.37
2022-10-08T06:14:56.220Z,15.27
2022-10-08T06:17:23.416Z,16.07
2022-10-08T06:19:50.579Z,16.37
2022-10-08T06:22:17.737Z,16.17
2022-10-08T06:24:44.990Z,16.70
2022-10-08T06:27:12.198Z,18.00
2022-10-08T06:29:39.357Z,17.70
2022-10-08T06:32:06.688Z,16.13
2022-10-08T06:34:33.787Z,16.13
2022-10-08T06:37:00.912Z,16.93
2022-10-08T06:39:28.164Z,15.97
2022-10-08T06:41:55.377Z,18.40
2022-10-08T06:44:22.615Z,15.53
2022-10-08T06:46:51.708Z,19.10
2022-10-08T06:49:19.526Z,16.20
2022-10-08T06:51:46.709Z,15.03
2022-10-08T06:54:13.763Z,15.10
2022-10-08T06:56:41.053Z,17.10
2022-10-08T06:59:08.571Z,16.90
2022-10-08T07:01:36.167Z,12.43
2022-10-08T07:04:03.823Z,15.47
2022-10-08T07:06:31.149Z,14.57
2022-10-08T07:08:59.109Z,15.57
2022-10-08T07:11:26.251Z,14.17
2022-10-08T07:13:54.590Z,14.63
2022-10-08T07:16:22.263Z,14.30
2022-10-08T07:18:50.206Z,16.47
2022-10-08T07:21:18.014Z,13.90
2022-10-08T07:23:45.195Z,15.00
2022-10-08T07:26:19.238Z,13.27
2022-10-08T07:28:53.131Z,13.67
2022-10-08T07:31:21.118Z,13.73
2022-10-08T07:33:48.301Z,13.73
2022-10-08T07:36:21.967Z,17.10
2022-10-08T07:38:49.034Z,16.63
2022-10-08T07:41:16.155Z,12.17
2022-10-08T07:43:43.329Z,14.03
2022-10-08T07:46:11.072Z,16.20
2022-10-08T07:48:38.590Z,14.60
2022-10-08T07:51:08.861Z,13.77
2022-10-08T07:53:36.610Z,13.77
2022-10-08T07:56:04.540Z,12.80
2022-10-08T07:58:31.807Z,14.40
2022-10-08T08:00:59.318Z,13.70
2022-10-08T08:03:26.565Z,15.10
2022-10-08T08:05:54.341Z,13.60
2022-10-08T08:08:24.779Z,14.90
2022-10-08T08:11:01.473Z,14.87
2022-10-08T08:13:31.862Z,15.73
2022-10-08T08:16:03.790Z,14.27
2022-10-08T08:18:31.277Z,15.00
2022-10-08T08:21:01.913Z,23.47
2022-10-08T08:23:32.089Z,25.70
2022-10-08T08:26:02.706Z,23.33
2022-10-08T08:28:29.982Z,19.33
2022-10-08T08:31:07.075Z,21.50
2022-10-08T08:33:34.276Z,24.40
2022-10-08T08:36:01.408Z,19.60
2022-10-08T08:38:28.475Z,17.53
2022-10-08T08:40:57.196Z,16.17
2022-10-08T08:43:24.345Z,18.13
2022-10-08T08:45:51.492Z,18.27
2022-10-08T08:48:25.765Z,17.00
2022-10-08T08:50:54.359Z,16.60
2022-10-08T08:53:21.428Z,16.83
2022-10-08T08:55:50.267Z,17.53
2022-10-08T08:58:26.399Z,16.50
2022-10-08T09:01:14.062Z,15.93
2022-10-08T09:03:48.745Z,17.43
2022-10-08T09:06:17.944Z,15.70
2022-10-08T09:08:52.256Z,19.00
2022-10-08T09:11:20.274Z,14.07
2022-10-08T09:14:06.239Z,18.23
2022-10-08T09:16:33.461Z,88.37
2022-10-08T09:19:00.531Z,68.73
2022-10-08T09:21:27.674Z,15.23
2022-10-08T09:23:54.735Z,13.43
2022-10-08T09:26:22.411Z,13.90
2022-10-08T09:28:50.525Z,14.60
2022-10-08T09:31:20.971Z,13.33
2022-10-08T09:34:15.673Z,14.00
2022-10-08T09:36:52.687Z,13.70
2022-10-08T09:39:20.421Z,12.93
2022-10-08T09:41:48.083Z,13.90
2022-10-08T09:44:21.853Z,13.07
2022-10-08T09:46:49.222Z,12.60
2022-10-08T09:49:20.811Z,12.30
2022-10-08T09:51:48.090Z,11.53
2022-10-08T09:54:15.686Z,14.73
2022-10-08T09:56:42.761Z,14.57
2022-10-08T09:59:13.364Z,14.73
2022-10-08T10:01:45.471Z,14.10
2022-10-08T10:04:17.804Z,14.63
2022-10-08T10:06:46.043Z,13.10
2022-10-08T10:09:32.037Z,14.07
2022-10-08T10:12:17.988Z,14.57
2022-10-08T10:15:01.808Z,13.43
2022-10-08T10:17:36.348Z,14.00
2022-10-08T10:20:11.181Z,13.13
2022-10-08T10:23:08.130Z,16.10
2022-10-08T10:25:46.367Z,13.50
2022-10-08T10:28:28.808Z,13.90
2022-10-08T10:31:08.953Z,19.10
2022-10-08T10:33:38.265Z,14.13
2022-10-08T10:36:06.420Z,12.00
2022-10-08T10:38:36.719Z,14.60
2022-10-08T10:41:05.655Z,12.80
2022-10-08T10:43:37.228Z,13.10
2022-10-08T10:46:14.364Z,13.53
2022-10-08T10:48:41.394Z,14.23
2022-10-08T10:51:23.642Z,13.20
2022-10-08T10:54:03.832Z,13.00
2022-10-08T10:56:31.903Z,12.20
2022-10-08T10:59:19.247Z,13.87
2022-10-08T11:02:09.356Z,11.20
2022-10-08T11:04:42.238Z,15.33
2022-10-08T11:07:15.049Z,13.10
2022-10-08T11:09:43.805Z,13.47
2022-10-08T11:12:15.776Z,12.03
2022-10-08T11:15:03.798Z,12.87
2022-10-08T11:17:43.813Z,13.17
2022-10-08T11:20:10.870Z,13.23
2022-10-08T11:22:43.413Z,12.57
2022-10-08T11:25:29.403Z,12.90
2022-10-08T11:27:59.567Z,13.50
2022-10-08T11:30:45.538Z,12.50
2022-10-08T11:33:13.959Z,13.17
2022-10-08T11:35:47.429Z,12.20
2022-10-08T11:38:14.462Z,12.23
2022-10-08T11:40:47.178Z,13.67
2022-10-08T11:43:17.470Z,13.87
2022-10-08T11:45:46.169Z,13.43
2022-10-08T11:48:29.613Z,11.73
2022-10-08T11:51:16.683Z,13.90
2022-10-08T11:53:43.737Z,14.13
2022-10-08T11:56:12.612Z,11.67
2022-10-08T11:58:39.687Z,15.83
2022-10-08T12:01:07.191Z,14.70
2022-10-08T12:03:37.054Z,12.33
2022-10-08T12:06:39.729Z,13.23
2022-10-08T12:09:07.168Z,12.33
2022-10-08T12:11:40.584Z,12.67
2022-10-08T12:14:17.085Z,13.60
2022-10-08T12:16:56.623Z,10.83
2022-10-08T12:19:36.031Z,13.27
2022-10-08T12:22:03.083Z,14.80
2022-10-08T12:24:39.329Z,10.40
2022-10-08T12:27:18.282Z,12.83
2022-10-08T12:29:58.020Z,13.30
2022-10-08T12:32:28.067Z,11.43
2022-10-08T12:34:55.273Z,11.20
2022-10-08T12:37:28.227Z,10.80
2022-10-08T12:39:55.283Z,11.43
2022-10-08T12:42:28.942Z,11.07
2022-10-08T12:45:01.343Z,11.63
2022-10-08T12:47:47.185Z,11.47
2022-10-08T12:50:32.835Z,11.63
2022-10-08T12:53:00.732Z,11.70
2022-10-08T12:55:28.475Z,12.07
2022-10-08T12:57:55.603Z,13.60
2022-10-08T13:00:22.660Z,10.73
2022-10-08T13:03:05.887Z,12.03
2022-10-08T13:05:33.945Z,13.10
2022-10-08T13:08:17.585Z,11.43
2022-10-08T13:10:44.656Z,15.73
2022-10-08T13:13:30.411Z,16.57
2022-10-08T13:16:01.035Z,15.10
2022-10-08T13:18:29.446Z,14.10
2022-10-08T13:21:03.224Z,10.53
2022-10-08T13:23:33.368Z,12.40
2022-10-08T13:26:00.785Z,12.53
2022-10-08T13:28:55.472Z,9.53
2022-10-08T13:31:23.057Z,8.63
2022-10-08T13:33:50.148Z,13.00
2022-10-08T13:36:22.007Z,8.03
2022-10-08T13:38:49.057Z,10.00
2022-10-08T13:41:23.312Z,7.90
2022-10-08T13:43:50.380Z,8.00
2022-10-08T13:46:17.534Z,10.73
2022-10-08T13:48:44.959Z,10.03
2022-10-08T13:51:12.016Z,7.80
2022-10-08T13:53:42.077Z,7.20
2022-10-08T13:56:09.208Z,12.33
2022-10-08T13:58:36.252Z,7.40
2022-10-08T14:01:03.484Z,8.70
2022-10-08T14:03:30.627Z,7.87
2022-10-08T14:05:57.750Z,6.67
2022-10-08T14:08:25.412Z,5.93
2022-10-08T14:10:57.603Z,6.33
2022-10-08T14:13:24.859Z,9.23
2022-10-08T14:15:52.089Z,7.57
2022-10-08T14:18:19.142Z,6.70
2022-10-08T14:20:46.235Z,5.97
2022-10-08T14:23:14.153Z,7.20
2022-10-08T14:25:41.288Z,11.83
2022-10-08T14:28:08.443Z,6.50
2022-10-08T14:30:35.549Z,6.33
2022-10-08T14:33:03.509Z,7.13
2022-10-08T14:35:32.731Z,5.10
2022-10-08T14:37:59.818Z,7.13
2022-10-08T14:40:26.924Z,5.80
2022-10-08T14:42:54.009Z,4.03
2022-10-08T14:45:22.790Z,6.23
2022-10-08T14:47:50.708Z,5.00
2022-10-08T14:50:17.788Z,4.57
2022-10-08T14:52:45.002Z,4.40
2022-10-08T14:55:12.172Z,5.10
2022-10-08T14:57:39.293Z,7.93
2022-10-08T15:00:06.812Z,7.60
2022-10-08T15:02:37.032Z,4.03
2022-10-08T15:05:04.160Z,10.30
2022-10-08T15:07:31.218Z,5.93
2022-10-08T15:09:58.344Z,10.10
2022-10-08T15:12:25.417Z,4.97
2022-10-08T15:14:52.543Z,3.63
2022-10-08T15:17:19.588Z,5.03
2022-10-08T15:19:46.959Z,4.27
2022-10-08T15:22:13.986Z,3.23
2022-10-08T15:24:41.336Z,3.43
2022-10-08T15:27:08.435Z,4.47
2022-10-08T15:29:36.323Z,5.67
2022-10-08T15:32:03.434Z,3.60
2022-10-08T15:34:30.612Z,5.17
2022-10-08T15:36:57.729Z,4.67
2022-10-08T15:39:24.827Z,3.90
2022-10-08T15:41:52.602Z,8.33
2022-10-08T15:44:22.494Z,3.50
2022-10-08T15:46:50.121Z,5.47
2022-10-08T15:49:17.232Z,4.20
2022-10-08T15:51:44.309Z,5.23
2022-10-08T15:54:11.357Z,3.23
2022-10-08T15:56:38.393Z,6.40
2022-10-08T15:59:05.505Z,4.43
2022-10-08T16:01:32.924Z,5.43
2022-10-08T16:04:00.222Z,5.33
2022-10-08T16:06:28.759Z,7.60
2022-10-08T16:08:59.084Z,3.50
2022-10-08T16:11:27.238Z,3.90
2022-10-08T16:13:55.140Z,4.13
2022-10-08T16:16:22.249Z,4.70
2022-10-08T16:18:52.885Z,3.97
2022-10-08T16:21:21.174Z,3.83
2022-10-08T16:23:48.341Z,4.20
2022-10-08T16:26:20.301Z,7.33
2022-10-08T16:28:48.357Z,7.53
2022-10-08T16:31:15.570Z,6.73
2022-10-08T16:33:42.778Z,7.37
2022-10-08T16:36:10.078Z,5.90
2022-10-08T16:38:38.641Z,5.23
2022-10-08T16:41:15.966Z,4.23
2022-10-08T16:43:46.033Z,5.67
2022-10-08T16:46:19.993Z,5.77
2022-10-08T16:48:53.706Z,5.03
2022-10-08T16:51:21.135Z,4.53
2022-10-08T16:53:49.015Z,6.40
2022-10-08T16:56:16.245Z,14.47
2022-10-08T16:58:43.364Z,16.80
2022-10-08T17:01:10.554Z,17.80
2022-10-08T17:03:37.730Z,13.30
2022-10-08T17:06:05.048Z,15.83
2022-10-08T17:08:32.213Z,12.17
2022-10-08T17:11:03.216Z,11.40
2022-10-08T17:13:30.303Z,11.00
2022-10-08T17:15:58.467Z,9.43
2022-10-08T17:18:26.272Z,11.70
2022-10-08T17:20:55.328Z,12.77
2022-10-08T17:23:22.806Z,13.30
2022-10-08T17:25:59.361Z,14.03
2022-10-08T17:28:31.371Z,13.80
2022-10-08T17:30:58.985Z,15.30
2022-10-08T17:33:26.694Z,17.90
2022-10-08T17:36:00.635Z,14.33
2022-10-08T17:38:27.795Z,12.37
2022-10-08T17:40:54.949Z,14.00
2022-10-08T17:43:22.059Z,13.10
2022-10-08T17:45:49.175Z,14.67
2022-10-08T17:48:16.532Z,12.60
2022-10-08T17:50:43.745Z,11.43
2022-10-08T17:53:10.948Z,10.47
2022-10-08T17:55:38.061Z,9.87
2022-10-08T17:58:05.156Z,9.93
2022-10-08T18:00:32.267Z,11.83
2022-10-08T18:02:59.435Z,9.83
2022-10-08T18:05:26.600Z,13.47
2022-10-08T18:07:53.699Z,12.13
2022-10-08T18:10:20.795Z,13.20
2022-10-08T18:12:48.031Z,11.80
2022-10-08T18:15:15.202Z,12.77
2022-10-08T18:17:42.283Z,15.10
2022-10-08T18:20:09.544Z,15.77
2022-10-08T18:22:36.704Z,15.07
2022-10-08T18:25:04.899Z,14.73
2022-10-08T18:27:32.210Z,17.17
2022-10-08T18:29:59.335Z,14.43
2022-10-08T18:32:26.467Z,13.77
2022-10-08T18:34:53.852Z,14.20
2022-10-08T18:37:20.885Z,14.40
2022-10-08T18:39:48.016Z,15.73
2022-10-08T18:42:15.090Z,17.50
2022-10-08T18:44:42.372Z,35.40
2022-10-08T18:47:09.546Z,60.03
2022-10-08T18:49:37.070Z,32.67
2022-10-08T18:52:04.235Z,38.90
2022-10-08T18:54:31.311Z,38.40
2022-10-08T18:57:00.236Z,27.40
2022-10-08T18:59:27.594Z,31.60
2022-10-08T19:01:58.992Z,27.73
2022-10-08T19:04:26.703Z,27.67
2022-10-08T19:06:54.159Z,26.10
2022-10-08T19:09:21.293Z,21.77
2022-10-08T19:11:49.380Z,19.90
2022-10-08T19:14:17.236Z,22.13
2022-10-08T19:16:44.488Z,27.83
2022-10-08T19:19:18.623Z,36.30
2022-10-08T19:21:45.988Z,34.40
2022-10-08T19:24:14.286Z,31.90
2022-10-08T19:26:41.552Z,25.00
2022-10-08T19:29:11.228Z,26.93
2022-10-08T19:31:38.411Z,30.07
2022-10-08T19:34:06.560Z,25.53
2022-10-08T19:36:35.567Z,29.50
2022-10-08T19:39:04.833Z,22.93
2022-10-08T19:41:32.202Z,19.70
2022-10-08T19:43:59.566Z,21.13
2022-10-08T19:46:27.050Z,18.90
2022-10-08T19:48:55.838Z,18.93
2022-10-08T19:51:22.992Z,17.10
2022-10-08T19:53:50.300Z,18.63
2022-10-08T19:56:17.467Z,24.47
2022-10-08T19:58:48.448Z,18.00
2022-10-08T20:01:22.930Z,18.07
2022-10-08T20:03:52.414Z,18.37
2022-10-08T20:06:24.333Z,17.43
2022-10-08T20:08:55.389Z,16.00
2022-10-08T20:11:22.662Z,17.80
2022-10-08T20:13:50.015Z,15.93
2022-10-08T20:16:18.425Z,14.83
2022-10-08T20:18:49.349Z,15.00
2022-10-08T20:21:16.432Z,15.20
2022-10-08T20:23:43.618Z,15.67
2022-10-08T20:26:11.556Z,13.20
2022-10-08T20:28:38.798Z,15.40
2022-10-08T20:31:24.802Z,13.43
2022-10-08T20:33:59.006Z,13.80
2022-10-08T20:36:26.177Z,13.77
2022-10-08T20:38:53.388Z,15.40
2022-10-08T20:41:20.877Z,13.33
2022-10-08T20:43:47.998Z,13.20
2022-10-08T20:46:15.495Z,15.57
2022-10-08T20:48:43.212Z,15.97
2022-10-08T20:51:17.194Z,15.67
2022-10-08T20:53:50.078Z,15.57
2022-10-08T20:56:17.330Z,14.93
2022-10-08T20:58:44.501Z,14.50
2022-10-08T21:01:12.702Z,16.33
2022-10-08T21:03:43.673Z,14.50
2022-10-08T21:06:11.532Z,13.57
2022-10-08T21:08:39.331Z,12.83
2022-10-08T21:11:07.016Z,13.20
2022-10-08T21:13:34.289Z,14.70
2022-10-08T21:16:05.327Z,14.83
2022-10-08T21:18:32.665Z,13.90
2022-10-08T21:21:06.627Z,14.53
2022-10-08T21:23:33.822Z,15.63
2022-10-08T21:26:10.288Z,13.40
2022-10-08T21:28:37.586Z,15.23
2022-10-08T21:31:05.088Z,13.67
2022-10-08T21:33:35.353Z,14.47
2022-10-08T21:36:02.672Z,15.37
2022-10-08T21:38:29.809Z,14.53
2022-10-08T21:40:56.921Z,14.73
2022-10-08T21:43:24.176Z,16.03
2022-10-08T21:45:57.938Z,14.37
2022-10-08T21:48:25.120Z,15.47
2022-10-08T21:51:10.874Z,15.20
2022-10-08T21:53:38.331Z,13.87
2022-10-08T21:56:07.421Z,13.20
2022-10-08T21:58:38.211Z,16.07
2022-10-08T22:01:05.863Z,17.47
2022-10-08T22:03:32.942Z,13.60
2022-10-08T22:06:01.496Z,12.83
2022-10-08T22:08:29.152Z,13.10
2022-10-08T22:10:56.374Z,12.23
2022-10-08T22:13:23.668Z,15.10
2022-10-08T22:15:54.510Z,12.60
2022-10-08T22:18:21.823Z,11.47
2022-10-08T22:20:49.013Z,13.47
2022-10-08T22:23:16.362Z,12.97
2022-10-08T22:25:43.914Z,10.63
2022-10-08T22:28:11.030Z,11.33
2022-10-08T22:30:38.383Z,10.33
2022-10-08T22:33:05.427Z,11.43
2022-10-08T22:35:33.384Z,11.50
2022-10-08T22:38:00.697Z,12.77
2022-10-08T22:40:27.939Z,13.80
2022-10-08T22:42:55.004Z,10.33
2022-10-08T22:45:22.420Z,11.43
2022-10-08T22:47:49.843Z,9.90
2022-10-08T22:50:19.856Z,10.77
2022-10-08T22:52:47.422Z,12.40
2022-10-08T22:55:16.970Z,11.50
2022-10-08T22:57:44.207Z,14.07
2022-10-08T23:00:11.660Z,14.60
2022-10-08T23:02:38.741Z,12.57
2022-10-08T23:05:06.074Z,11.97
2022-10-08T23:07:33.153Z,13.90
2022-10-08T23:10:00.215Z,12.57
2022-10-08T23:12:27.281Z,12.60
2022-10-08T23:14:54.324Z,13.53
2022-10-08T23:17:21.406Z,14.43
2022-10-08T23:19:48.476Z,13.43
2022-10-08T23:22:15.522Z,14.23
2022-10-08T23:24:42.648Z,11.90
2022-10-08T23:27:09.946Z,11.73
2022-10-08T23:29:37.061Z,12.00
2022-10-08T23:32:04.181Z,19.17
2022-10-08T23:34:31.318Z,13.53
2022-10-08T23:36:58.342Z,12.70
2022-10-08T23:39:25.459Z,12.67
2022-10-08T23:41:52.496Z,14.30
2022-10-08T23:44:19.591Z,12.47
2022-10-08T23:46:46.633Z,12.20
2022-10-08T23:49:13.796Z,11.70
2022-10-08T23:51:41.036Z,14.70
2022-10-08T23:54:08.176Z,13.20
2022-10-08T23:56:35.379Z,13.47
2022-10-08T23:59:02.508Z,11.83
